Thunder radar more information blitzortung!


Radar de pluja more information rain snow radar


Visita la nostra xarxa de llocs de meteo:

Template documentation
and downloads

And another site



No particular awareness of the weather is required.    There are no Weather-warnings

Pagina Historial Weather Underground text

Diari Resum Octubre 29, 2017 Unitats:  Tant    Imperial   Mètric
« Previous Dia
SegĂźent Dia »
Diari Setmana Mensual Anual Personalitzada
  Maxima: Minima: Media:
Temperatura: 71.8 °F /  22.1 °C 49.5 °F /  9.7 °C 61.3 °F /  16.3 °C
Punt de rosada: 50.9 °F /  10.5 °C 39.6 °F /  4.2 °C 44.6 °F /  7 °C
Humitat: 76 % 42 % 55 %
Wind Speed: 9.2 mph /  14.8 km/h - 3 mph /  4.9 km/h
RĂ fegues de vent: 9.2 mph /  14.8 km/h - -
Vent:- - SSE
Pression baro: 30.2 in /  1022.9 hPa 30 in /  1016.8 hPa -
Precipitacions: 0 in /  0.0 mm    
Historical Graphs
 
 
Dades de taula per Octubre 29, 2017
Temps Temperatura Punt de rosada Pression baro Vent Wind Speed RĂ fegues de vent Humitat Rainfall Rate (Hourly)
00:00 56.5 °F /  13.6 °C 47.1 °F /  8.4 °C 30.2 in /  1021.9 hPa ENE 2.3 mph /  3.7 km/h 2.3 mph /  3.7 km/h 71 % 0 in /  0.0 mm
00:05 56.5 °F /  13.6 °C 47.7 °F /  8.7 °C 30.2 in /  1021.9 hPa East 1.4 mph /  2.3 km/h 1.4 mph /  2.3 km/h 72 % 0 in /  0.0 mm
00:10 56.3 °F /  13.5 °C 47.5 °F /  8.6 °C 30.2 in /  1021.9 hPa East 2.3 mph /  3.7 km/h   72 % 0 in /  0.0 mm
00:15 56.5 °F /  13.6 °C 47.7 °F /  8.7 °C 30.2 in /  1021.9 hPa West 1.2 mph /  1.9 km/h 1.2 mph /  1.9 km/h 72 % 0 in /  0.0 mm
00:20 56.3 °F /  13.5 °C 47.5 °F /  8.6 °C 30.2 in /  1021.9 hPa WNW 1.2 mph /  1.9 km/h   72 % 0 in /  0.0 mm
00:25 56.1 °F /  13.4 °C 47.7 °F /  8.7 °C 30.2 in /  1020.9 hPa Calm     73 % 0 in /  0.0 mm
00:30 55.8 °F /  13.2 °C 46.9 °F /  8.3 °C 30.2 in /  1020.9 hPa SSE 2.3 mph /  3.7 km/h 2.3 mph /  3.7 km/h 72 % 0 in /  0.0 mm
00:36 55.6 °F /  13.1 °C 47.1 °F /  8.4 °C 30.2 in /  1020.9 hPa NNE 2.3 mph /  3.7 km/h 2.3 mph /  3.7 km/h 73 % 0 in /  0.0 mm
00:40 50.7 °F /  10.4 °C 42.6 °F /  5.9 °C 30.2 in /  1021.9 hPa Calm   2 mph /  3.2 km/h 74 % 0 in /  0.0 mm
00:41 55.4 °F /  13.0 °C 46.9 °F /  8.3 °C 30.2 in /  1020.9 hPa Calm     73 % 0 in /  0.0 mm
00:46 55.2 °F /  12.9 °C 47.1 °F /  8.4 °C 30.2 in /  1020.9 hPa Calm     74 % 0 in /  0.0 mm
00:50 50.7 °F /  10.4 °C 42.6 °F /  5.9 °C 30.2 in /  1021.9 hPa WSW 1 mph /  1.6 km/h 2 mph /  3.2 km/h 74 % 0 in /  0.0 mm
00:51 54.9 °F /  12.7 °C 46.8 °F /  8.2 °C 30.2 in /  1020.9 hPa NE 1.2 mph /  1.9 km/h   74 % 0 in /  0.0 mm
00:56 54.7 °F /  12.6 °C 46.9 °F /  8.3 °C 30.2 in /  1021.9 hPa Calm     75 % 0 in /  0.0 mm
01:00 51.4 °F /  10.8 °C 43.3 °F /  6.3 °C 30.2 in /  1021.9 hPa NNE 2 mph /  3.2 km/h 3 mph /  4.8 km/h 74 % 0 in /  0.0 mm
01:10 51.1 °F /  10.6 °C 43.2 °F /  6.2 °C 30.2 in /  1021.9 hPa Calm   2 mph /  3.2 km/h 74 % 0 in /  0.0 mm
01:20 50.9 °F /  10.5 °C 43 °F /  6.1 °C 30.2 in /  1022.9 hPa West 1 mph /  1.6 km/h 2 mph /  3.2 km/h 74 % 0 in /  0.0 mm
01:30 50.7 °F /  10.4 °C 42.6 °F /  5.9 °C 30.2 in /  1021.9 hPa WNW 1 mph /  1.6 km/h 2 mph /  3.2 km/h 74 % 0 in /  0.0 mm
01:40 50.7 °F /  10.4 °C 42.6 °F /  5.9 °C 30.2 in /  1021.9 hPa NNW 1 mph /  1.6 km/h 2 mph /  3.2 km/h 74 % 0 in /  0.0 mm
01:50 50.5 °F /  10.3 °C 42.6 °F /  5.9 °C 30.2 in /  1021.9 hPa North 1 mph /  1.6 km/h 2 mph /  3.2 km/h 74 % 0 in /  0.0 mm
02:00 50 °F /  10.0 °C 42.1 °F /  5.6 °C 30.2 in /  1021.9 hPa NNW 1 mph /  1.6 km/h 1 mph /  1.6 km/h 74 % 0 in /  0.0 mm
02:10 49.8 °F /  9.9 °C 41.9 °F /  5.5 °C 30.2 in /  1021.9 hPa West 1 mph /  1.6 km/h 2 mph /  3.2 km/h 74 % 0 in /  0.0 mm
02:20 49.5 °F /  9.7 °C 41.9 °F /  5.5 °C 30.2 in /  1021.9 hPa West 1 mph /  1.6 km/h 2 mph /  3.2 km/h 75 % 0 in /  0.0 mm
02:30 49.5 °F /  9.7 °C 41.9 °F /  5.5 °C 30.2 in /  1021.9 hPa Calm   2 mph /  3.2 km/h 75 % 0 in /  0.0 mm
02:40 49.5 °F /  9.7 °C 42.3 °F /  5.7 °C 30.2 in /  1021.9 hPa Calm     76 % 0 in /  0.0 mm
02:50 50 °F /  10.0 °C 42.6 °F /  5.9 °C 30.2 in /  1021.9 hPa Calm     76 % 0 in /  0.0 mm
02:00 50.7 °F /  10.4 °C 43.3 °F /  6.3 °C 30.2 in /  1022.9 hPa Calm   1 mph /  1.6 km/h 76 % 0 in /  0.0 mm
02:10 51.3 °F /  10.7 °C 44.1 °F /  6.7 °C 30.2 in /  1022.9 hPa Calm     76 % 0 in /  0.0 mm
02:20 51.4 °F /  10.8 °C 43.9 °F /  6.6 °C 30.2 in /  1021.9 hPa Calm   2 mph /  3.2 km/h 75 % 0 in /  0.0 mm
02:30 52.7 °F /  11.5 °C 45 °F /  7.2 °C 30.2 in /  1022.9 hPa Calm   1 mph /  1.6 km/h 75 % 0 in /  0.0 mm
02:40 52.2 °F /  11.2 °C 44.1 °F /  6.7 °C 30.2 in /  1022.9 hPa SW 1 mph /  1.6 km/h 2 mph /  3.2 km/h 74 % 0 in /  0.0 mm
02:50 52.9 °F /  11.6 °C 44.8 °F /  7.1 °C 30.2 in /  1022.9 hPa SW 2 mph /  3.2 km/h 2 mph /  3.2 km/h 74 % 0 in /  0.0 mm
03:00 54.3 °F /  12.4 °C 45.9 °F /  7.7 °C 30.2 in /  1022.9 hPa SSW 1 mph /  1.6 km/h 2 mph /  3.2 km/h 73 % 0 in /  0.0 mm
03:10 54.3 °F /  12.4 °C 45.5 °F /  7.5 °C 30.2 in /  1022.9 hPa SSW 1 mph /  1.6 km/h 2 mph /  3.2 km/h 72 % 0 in /  0.0 mm
03:20 54.9 °F /  12.7 °C 45.7 °F /  7.6 °C 30.2 in /  1022.9 hPa SW 1 mph /  1.6 km/h 2 mph /  3.2 km/h 71 % 0 in /  0.0 mm
03:30 55.2 °F /  12.9 °C 45.7 °F /  7.6 °C 30.2 in /  1022.9 hPa SSW 2 mph /  3.2 km/h 3 mph /  4.8 km/h 70 % 0 in /  0.0 mm
03:40 56.8 °F /  13.8 °C 46.8 °F /  8.2 °C 30.2 in /  1022.9 hPa SSW 1 mph /  1.6 km/h 3 mph /  4.8 km/h 69 % 0 in /  0.0 mm
03:50 57.2 °F /  14.0 °C 46.2 °F /  7.9 °C 30.2 in /  1022.9 hPa South 1 mph /  1.6 km/h 2 mph /  3.2 km/h 67 % 0 in /  0.0 mm
04:00 56.8 °F /  13.8 °C 46 °F /  7.8 °C 30.2 in /  1021.9 hPa ESE 1 mph /  1.6 km/h 2 mph /  3.2 km/h 67 % 0 in /  0.0 mm
10:04 57.9 °F /  14.4 °C 46.6 °F /  8.1 °C 30.2 in /  1021.9 hPa ENE 4 mph /  6.4 km/h 4 mph /  6.4 km/h 66 % 0 in /  0.0 mm
10:05 57.9 °F /  14.4 °C 46.6 °F /  8.1 °C 30.2 in /  1021.9 hPa ENE 4 mph /  6.4 km/h 4 mph /  6.4 km/h 66 % 0 in /  0.0 mm
10:10 57.9 °F /  14.4 °C 46.6 °F /  8.1 °C 30.2 in /  1021.9 hPa NE 6.9 mph /  11.1 km/h 6.9 mph /  11.1 km/h 66 % 0 in /  0.0 mm
10:15 57.6 °F /  14.2 °C 46.2 °F /  7.9 °C 30.2 in /  1021.9 hPa NNE 5.8 mph /  9.3 km/h 5.8 mph /  9.3 km/h 66 % 0 in /  0.0 mm
10:20 57.7 °F /  14.3 °C 46 °F /  7.8 °C 30.2 in /  1021.9 hPa ENE 3.5 mph /  5.6 km/h 3.5 mph /  5.6 km/h 65 % 0 in /  0.0 mm
10:25 58.1 °F /  14.5 °C 46.4 °F /  8.0 °C 30.2 in /  1021.9 hPa NE 4.6 mph /  7.4 km/h 4.6 mph /  7.4 km/h 65 % 0 in /  0.0 mm
10:30 58.6 °F /  14.8 °C 46.9 °F /  8.3 °C 30.2 in /  1021.9 hPa NE 1.6 mph /  2.6 km/h   65 % 0 in /  0.0 mm
10:35 59 °F /  15.0 °C 47.1 °F /  8.4 °C 30.2 in /  1021.9 hPa NE 4.6 mph /  7.4 km/h 4.6 mph /  7.4 km/h 65 % 0 in /  0.0 mm
10:40 58.8 °F /  14.9 °C 46.8 °F /  8.2 °C 30.2 in /  1021.9 hPa NNE 4.6 mph /  7.4 km/h 4.6 mph /  7.4 km/h 64 % 0 in /  0.0 mm
10:45 59.2 °F /  15.1 °C 46.9 °F /  8.3 °C 30.2 in /  1021.9 hPa NNE 2.3 mph /  3.7 km/h 2.3 mph /  3.7 km/h 64 % 0 in /  0.0 mm
10:50 59.7 °F /  15.4 °C 47.8 °F /  8.8 °C 30.2 in /  1021.9 hPa North 2.3 mph /  3.7 km/h 2.3 mph /  3.7 km/h 65 % 0 in /  0.0 mm
10:55 60.1 °F /  15.6 °C 47.8 °F /  8.8 °C 30.2 in /  1020.9 hPa NNE 4.6 mph /  7.4 km/h 4.6 mph /  7.4 km/h 64 % 0 in /  0.0 mm
11:00 60.4 °F /  15.8 °C 48.2 °F /  9.0 °C 30.2 in /  1020.9 hPa ENE 4.6 mph /  7.4 km/h 4.6 mph /  7.4 km/h 64 % 0 in /  0.0 mm
11:05 60.8 °F /  16.0 °C 48.6 °F /  9.2 °C 30.2 in /  1020.9 hPa North 2.4 mph /  3.9 km/h 2.4 mph /  3.9 km/h 64 % 0 in /  0.0 mm
11:10 60.6 °F /  15.9 °C 47.8 °F /  8.8 °C 30.2 in /  1021.9 hPa NE 5.8 mph /  9.3 km/h 5.8 mph /  9.3 km/h 63 % 0 in /  0.0 mm
11:15 60.6 °F /  15.9 °C 47.5 °F /  8.6 °C 30.2 in /  1021.9 hPa NE 5.8 mph /  9.3 km/h 5.8 mph /  9.3 km/h 62 % 0 in /  0.0 mm
11:20 61.3 °F /  16.3 °C 48.6 °F /  9.2 °C 30.2 in /  1021.9 hPa NE 4.6 mph /  7.4 km/h 4.6 mph /  7.4 km/h 63 % 0 in /  0.0 mm
11:25 61.5 °F /  16.4 °C 48.4 °F /  9.1 °C 30.2 in /  1021.9 hPa NNE 4.6 mph /  7.4 km/h 4.6 mph /  7.4 km/h 62 % 0 in /  0.0 mm
11:30 62.1 °F /  16.7 °C 48.9 °F /  9.4 °C 30.2 in /  1021.9 hPa NNE 3.5 mph /  5.6 km/h 3.5 mph /  5.6 km/h 62 % 0 in /  0.0 mm
11:35 62.2 °F /  16.8 °C 49.1 °F /  9.5 °C 30.2 in /  1021.9 hPa NNE 6.9 mph /  11.1 km/h 6.9 mph /  11.1 km/h 62 % 0 in /  0.0 mm
11:40 61.9 °F /  16.6 °C 48.4 °F /  9.1 °C 30.2 in /  1020.9 hPa NNE 4.6 mph /  7.4 km/h 4.6 mph /  7.4 km/h 61 % 0 in /  0.0 mm
11:45 62.2 °F /  16.8 °C 48.6 °F /  9.2 °C 30.2 in /  1020.9 hPa NNE 4.6 mph /  7.4 km/h 4.6 mph /  7.4 km/h 61 % 0 in /  0.0 mm
11:50 62.6 °F /  17.0 °C 48.6 °F /  9.2 °C 30.2 in /  1020.9 hPa ENE 3.5 mph /  5.6 km/h 3.5 mph /  5.6 km/h 60 % 0 in /  0.0 mm
11:55 62.8 °F /  17.1 °C 48.2 °F /  9.0 °C 30.2 in /  1020.9 hPa NNE 4.6 mph /  7.4 km/h 4.6 mph /  7.4 km/h 59 % 0 in /  0.0 mm
12:00 62.8 °F /  17.1 °C 48.2 °F /  9.0 °C 30.2 in /  1020.9 hPa ENE 5.8 mph /  9.3 km/h 5.8 mph /  9.3 km/h 59 % 0 in /  0.0 mm
12:05 63.1 °F /  17.3 °C 48.6 °F /  9.2 °C 30.2 in /  1020.9 hPa NNW 4.6 mph /  7.4 km/h 4.6 mph /  7.4 km/h 59 % 0 in /  0.0 mm
12:10 63.1 °F /  17.3 °C 48 °F /  8.9 °C 30.2 in /  1020.9 hPa NE 5.8 mph /  9.3 km/h 5.8 mph /  9.3 km/h 58 % 0 in /  0.0 mm
12:15 63.1 °F /  17.3 °C 48 °F /  8.9 °C 30.2 in /  1020.9 hPa NNE 6.9 mph /  11.1 km/h 6.9 mph /  11.1 km/h 58 % 0 in /  0.0 mm
12:20 63.9 °F /  17.7 °C 48.7 °F /  9.3 °C 30.2 in /  1020.9 hPa NNE 5.8 mph /  9.3 km/h 5.8 mph /  9.3 km/h 58 % 0 in /  0.0 mm
12:25 64 °F /  17.8 °C 48.6 °F /  9.2 °C 30.1 in /  1019.9 hPa NNE 4.6 mph /  7.4 km/h 4.6 mph /  7.4 km/h 57 % 0 in /  0.0 mm
12:30 64.8 °F /  18.2 °C 49.6 °F /  9.8 °C 30.1 in /  1019.9 hPa NNE 6 mph /  9.7 km/h 6 mph /  9.7 km/h 58 % 0 in /  0.0 mm
12:35 64.8 °F /  18.2 °C 49.3 °F /  9.6 °C 30.1 in /  1019.9 hPa NNE 3.5 mph /  5.6 km/h 3.5 mph /  5.6 km/h 57 % 0 in /  0.0 mm
12:40 65.1 °F /  18.4 °C 49.5 °F /  9.7 °C 30.1 in /  1019.9 hPa NNE 3.5 mph /  5.6 km/h 3.5 mph /  5.6 km/h 57 % 0 in /  0.0 mm
12:45 65.7 °F /  18.7 °C 50 °F /  10.0 °C 30.1 in /  1019.9 hPa NE 3.5 mph /  5.6 km/h 3.5 mph /  5.6 km/h 57 % 0 in /  0.0 mm
12:50 65.8 °F /  18.8 °C 49.6 °F /  9.8 °C 30.1 in /  1019.9 hPa NNE 3.5 mph /  5.6 km/h 3.5 mph /  5.6 km/h 56 % 0 in /  0.0 mm
12:55 66.2 °F /  19.0 °C 49.6 °F /  9.8 °C 30.1 in /  1019.9 hPa ENE 4.6 mph /  7.4 km/h 4.6 mph /  7.4 km/h 55 % 0 in /  0.0 mm
13:00 66.4 °F /  19.1 °C 49.6 °F /  9.8 °C 30.1 in /  1019.9 hPa NNE 3.5 mph /  5.6 km/h 3.5 mph /  5.6 km/h 55 % 0 in /  0.0 mm
13:05 66.7 °F /  19.3 °C 50.2 °F /  10.1 °C 30.1 in /  1019.9 hPa ENE 3.5 mph /  5.6 km/h 3.5 mph /  5.6 km/h 55 % 0 in /  0.0 mm
13:10 67.1 °F /  19.5 °C 49.8 °F /  9.9 °C 30.1 in /  1019.9 hPa NE 2.3 mph /  3.7 km/h 2.4 mph /  3.9 km/h 54 % 0 in /  0.0 mm
13:15 67.3 °F /  19.6 °C 50.5 °F /  10.3 °C 30.1 in /  1019.9 hPa ENE 4.9 mph /  7.9 km/h 4.9 mph /  7.9 km/h 55 % 0 in /  0.0 mm
13:20 66.9 °F /  19.4 °C 49.6 °F /  9.8 °C 30.1 in /  1019.9 hPa NNW 4.6 mph /  7.4 km/h 4.6 mph /  7.4 km/h 54 % 0 in /  0.0 mm
13:25 67.1 °F /  19.5 °C 49.8 °F /  9.9 °C 30.1 in /  1019.9 hPa NNE 5.4 mph /  8.7 km/h 5.4 mph /  8.7 km/h 54 % 0 in /  0.0 mm
13:30 66.7 °F /  19.3 °C 49.1 °F /  9.5 °C 30.1 in /  1019.9 hPa NNE 6.9 mph /  11.1 km/h 6.9 mph /  11.1 km/h 53 % 0 in /  0.0 mm
13:35 66.9 °F /  19.4 °C 49.3 °F /  9.6 °C 30.1 in /  1019.9 hPa WNW 5.8 mph /  9.3 km/h 5.8 mph /  9.3 km/h 53 % 0 in /  0.0 mm
13:40 67.3 °F /  19.6 °C 49.6 °F /  9.8 °C 30.1 in /  1019.9 hPa NNE 4.6 mph /  7.4 km/h 4.6 mph /  7.4 km/h 53 % 0 in /  0.0 mm
13:45 67.3 °F /  19.6 °C 49.6 °F /  9.8 °C 30.1 in /  1019.9 hPa ENE 4 mph /  6.4 km/h 4 mph /  6.4 km/h 53 % 0 in /  0.0 mm
13:50 67.3 °F /  19.6 °C 49.6 °F /  9.8 °C 30.1 in /  1019.9 hPa NW 4.6 mph /  7.4 km/h 4.6 mph /  7.4 km/h 53 % 0 in /  0.0 mm
13:55 67.6 °F /  19.8 °C 49.8 °F /  9.9 °C 30.1 in /  1018.8 hPa NNE 2.3 mph /  3.7 km/h 2.3 mph /  3.7 km/h 53 % 0 in /  0.0 mm
14:00 68 °F /  20.0 °C 49.6 °F /  9.8 °C 30.1 in /  1018.8 hPa SE 2.3 mph /  3.7 km/h 2.3 mph /  3.7 km/h 52 % 0 in /  0.0 mm
14:05 69.3 °F /  20.7 °C 50.9 °F /  10.5 °C 30.1 in /  1018.8 hPa WSW 3.8 mph /  6.1 km/h 3.8 mph /  6.1 km/h 52 % 0 in /  0.0 mm
14:10 70 °F /  21.1 °C 50.5 °F /  10.3 °C 30.1 in /  1018.8 hPa WSW 7.4 mph /  11.9 km/h 7.4 mph /  11.9 km/h 50 % 0 in /  0.0 mm
14:15 70.2 °F /  21.2 °C 50.2 °F /  10.1 °C 30.1 in /  1018.8 hPa SW 6.9 mph /  11.1 km/h 6.9 mph /  11.1 km/h 49 % 0 in /  0.0 mm
14:20 70.7 °F /  21.5 °C 50.5 °F /  10.3 °C 30.1 in /  1018.8 hPa SW 3.5 mph /  5.6 km/h 3.5 mph /  5.6 km/h 49 % 0 in /  0.0 mm
14:25 70.9 °F /  21.6 °C 50.2 °F /  10.1 °C 30.1 in /  1018.8 hPa West 6.9 mph /  11.1 km/h 6.9 mph /  11.1 km/h 48 % 0 in /  0.0 mm
14:30 70.7 °F /  21.5 °C 50 °F /  10.0 °C 30.1 in /  1018.8 hPa WSW 6.9 mph /  11.1 km/h 6.9 mph /  11.1 km/h 48 % 0 in /  0.0 mm
14:35 71.1 °F /  21.7 °C 49.8 °F /  9.9 °C 30.1 in /  1018.8 hPa West 4.9 mph /  7.9 km/h 4.9 mph /  7.9 km/h 47 % 0 in /  0.0 mm
14:40 71.2 °F /  21.8 °C 50 °F /  10.0 °C 30.1 in /  1017.8 hPa WSW 4.9 mph /  7.9 km/h 4.9 mph /  7.9 km/h 47 % 0 in /  0.0 mm
14:45 71.1 °F /  21.7 °C 48.6 °F /  9.2 °C 30.1 in /  1017.8 hPa WSW 8.1 mph /  13.0 km/h 8.1 mph /  13.0 km/h 45 % 0 in /  0.0 mm
14:50 71.1 °F /  21.7 °C 48.6 °F /  9.2 °C 30.1 in /  1017.8 hPa WSW 6.9 mph /  11.1 km/h 6.9 mph /  11.1 km/h 45 % 0 in /  0.0 mm
14:55 70.9 °F /  21.6 °C 48.6 °F /  9.2 °C 30.1 in /  1017.8 hPa NW 6.9 mph /  11.1 km/h 6.9 mph /  11.1 km/h 45 % 0 in /  0.0 mm
15:00 71.2 °F /  21.8 °C 48.7 °F /  9.3 °C 30.1 in /  1017.8 hPa WNW 4.6 mph /  7.4 km/h 4.6 mph /  7.4 km/h 45 % 0 in /  0.0 mm
15:05 71.2 °F /  21.8 °C 48.7 °F /  9.3 °C 30.1 in /  1017.8 hPa SW 4.3 mph /  6.9 km/h 4.3 mph /  6.9 km/h 45 % 0 in /  0.0 mm
15:15 71.1 °F /  21.7 °C 48 °F /  8.9 °C 30.1 in /  1017.8 hPa West 3.5 mph /  5.6 km/h 3.5 mph /  5.6 km/h 44 % 0 in /  0.0 mm
15:20 70.7 °F /  21.5 °C 47.7 °F /  8.7 °C 30.1 in /  1017.8 hPa West 4.6 mph /  7.4 km/h 4.6 mph /  7.4 km/h 44 % 0 in /  0.0 mm
15:25 71.4 °F /  21.9 °C 48.4 °F /  9.1 °C 30.1 in /  1017.8 hPa West 2.3 mph /  3.7 km/h 2.3 mph /  3.7 km/h 44 % 0 in /  0.0 mm
15:30 71.4 °F /  21.9 °C 48.9 °F /  9.4 °C 30.1 in /  1017.8 hPa WSW 5.4 mph /  8.7 km/h 5.4 mph /  8.7 km/h 45 % 0 in /  0.0 mm
15:35 71.4 °F /  21.9 °C 48.4 °F /  9.1 °C 30.1 in /  1017.8 hPa WSW 5.8 mph /  9.3 km/h 5.8 mph /  9.3 km/h 44 % 0 in /  0.0 mm
15:40 71.8 °F /  22.1 °C 48.7 °F /  9.3 °C 30 in /  1016.8 hPa SW 4.6 mph /  7.4 km/h 4.6 mph /  7.4 km/h 44 % 0 in /  0.0 mm
15:45 71.8 °F /  22.1 °C 48.7 °F /  9.3 °C 30 in /  1016.8 hPa West 4.6 mph /  7.4 km/h 4.6 mph /  7.4 km/h 44 % 0 in /  0.0 mm
15:50 71.6 °F /  22.0 °C 48.6 °F /  9.2 °C 30 in /  1016.8 hPa West 3.6 mph /  5.8 km/h 3.6 mph /  5.8 km/h 44 % 0 in /  0.0 mm
15:55 71.4 °F /  21.9 °C 48.4 °F /  9.1 °C 30.1 in /  1017.8 hPa West 4.6 mph /  7.4 km/h 4.6 mph /  7.4 km/h 44 % 0 in /  0.0 mm
16:00 71.4 °F /  21.9 °C 48.4 °F /  9.1 °C 30.1 in /  1017.8 hPa West 4.6 mph /  7.4 km/h 4.6 mph /  7.4 km/h 44 % 0 in /  0.0 mm
16:05 71.1 °F /  21.7 °C 47.5 °F /  8.6 °C 30.1 in /  1017.8 hPa WNW 4.6 mph /  7.4 km/h 4.6 mph /  7.4 km/h 43 % 0 in /  0.0 mm
16:10 71.2 °F /  21.8 °C 47.7 °F /  8.7 °C 30.1 in /  1017.8 hPa West 3.5 mph /  5.6 km/h 3.5 mph /  5.6 km/h 43 % 0 in /  0.0 mm
16:15 70.7 °F /  21.5 °C 47.1 °F /  8.4 °C 30.1 in /  1017.8 hPa West 4.3 mph /  6.9 km/h 4.3 mph /  6.9 km/h 43 % 0 in /  0.0 mm
16:20 70.3 °F /  21.3 °C 46.2 °F /  7.9 °C 30.1 in /  1017.8 hPa West 3.5 mph /  5.6 km/h 3.5 mph /  5.6 km/h 42 % 0 in /  0.0 mm
16:25 70.3 °F /  21.3 °C 46.2 °F /  7.9 °C 30.1 in /  1017.8 hPa West 9.2 mph /  14.8 km/h 9.2 mph /  14.8 km/h 42 % 0 in /  0.0 mm
16:30 70.2 °F /  21.2 °C 46 °F /  7.8 °C 30.1 in /  1017.8 hPa West 5.8 mph /  9.3 km/h 5.8 mph /  9.3 km/h 42 % 0 in /  0.0 mm
16:35 70 °F /  21.1 °C 45.9 °F /  7.7 °C 30.1 in /  1017.8 hPa NNW 5.8 mph /  9.3 km/h 5.8 mph /  9.3 km/h 42 % 0 in /  0.0 mm
16:40 69.8 °F /  21.0 °C 45.7 °F /  7.6 °C 30.1 in /  1018.8 hPa NW 3.5 mph /  5.6 km/h 3.5 mph /  5.6 km/h 42 % 0 in /  0.0 mm
16:45 69.3 °F /  20.7 °C 45.1 °F /  7.3 °C 30.1 in /  1018.8 hPa WNW 2.3 mph /  3.7 km/h 2.3 mph /  3.7 km/h 42 % 0 in /  0.0 mm
16:50 69.3 °F /  20.7 °C 45.1 °F /  7.3 °C 30.1 in /  1018.8 hPa WNW 4.6 mph /  7.4 km/h 4.6 mph /  7.4 km/h 42 % 0 in /  0.0 mm
16:55 69.1 °F /  20.6 °C 45.7 °F /  7.6 °C 30.1 in /  1017.8 hPa WNW 2.3 mph /  3.7 km/h 2.3 mph /  3.7 km/h 43 % 0 in /  0.0 mm
17:00 68.9 °F /  20.5 °C 45.5 °F /  7.5 °C 30.1 in /  1017.8 hPa SSW 4.3 mph /  6.9 km/h 4.3 mph /  6.9 km/h 43 % 0 in /  0.0 mm
17:05 68.7 °F /  20.4 °C 44.8 °F /  7.1 °C 30.1 in /  1017.8 hPa SW 2.3 mph /  3.7 km/h 2.3 mph /  3.7 km/h 42 % 0 in /  0.0 mm
17:10 68.5 °F /  20.3 °C 45.1 °F /  7.3 °C 30 in /  1016.8 hPa SW 2.3 mph /  3.7 km/h 2.3 mph /  3.7 km/h 43 % 0 in /  0.0 mm
17:15 68.2 °F /  20.1 °C 44.2 °F /  6.8 °C 30 in /  1016.8 hPa WSW 4.6 mph /  7.4 km/h 4.6 mph /  7.4 km/h 42 % 0 in /  0.0 mm
17:20 67.6 °F /  19.8 °C 43.7 °F /  6.5 °C 30 in /  1016.8 hPa West 3.6 mph /  5.8 km/h 3.6 mph /  5.8 km/h 42 % 0 in /  0.0 mm
17:21 67.6 °F /  19.8 °C 43.7 °F /  6.5 °C 30 in /  1016.8 hPa West 3.6 mph /  5.8 km/h 3.6 mph /  5.8 km/h 42 % 0 in /  0.0 mm
17:26 67.5 °F /  19.7 °C 43.5 °F /  6.4 °C 30.1 in /  1017.8 hPa WSW 2.4 mph /  3.9 km/h 2.4 mph /  3.9 km/h 42 % 0 in /  0.0 mm
17:31 67.1 °F /  19.5 °C 43.2 °F /  6.2 °C 30.1 in /  1017.8 hPa West 3.6 mph /  5.8 km/h 3.6 mph /  5.8 km/h 42 % 0 in /  0.0 mm
17:36 66.4 °F /  19.1 °C 42.6 °F /  5.9 °C 30.1 in /  1017.8 hPa West 4.6 mph /  7.4 km/h 4.6 mph /  7.4 km/h 42 % 0 in /  0.0 mm
17:41 66 °F /  18.9 °C 42.3 °F /  5.7 °C 30.1 in /  1017.8 hPa WNW 5.8 mph /  9.3 km/h 5.8 mph /  9.3 km/h 42 % 0 in /  0.0 mm
17:46 65.7 °F /  18.7 °C 41.9 °F /  5.5 °C 30.1 in /  1017.8 hPa SW 5.8 mph /  9.3 km/h 5.8 mph /  9.3 km/h 42 % 0 in /  0.0 mm
17:51 65.1 °F /  18.4 °C 41.4 °F /  5.2 °C 30.1 in /  1017.8 hPa West 3.5 mph /  5.6 km/h 3.5 mph /  5.6 km/h 42 % 0 in /  0.0 mm
17:56 64.8 °F /  18.2 °C 41.2 °F /  5.1 °C 30.1 in /  1017.8 hPa West 4.6 mph /  7.4 km/h 4.6 mph /  7.4 km/h 42 % 0 in /  0.0 mm
18:01 64.6 °F /  18.1 °C 41 °F /  5.0 °C 30.1 in /  1017.8 hPa WNW 3.6 mph /  5.8 km/h 3.6 mph /  5.8 km/h 42 % 0 in /  0.0 mm
18:06 64.2 °F /  17.9 °C 41.2 °F /  5.1 °C 30.1 in /  1017.8 hPa WSW 5.8 mph /  9.3 km/h 5.8 mph /  9.3 km/h 43 % 0 in /  0.0 mm
18:11 63.9 °F /  17.7 °C 40.8 °F /  4.9 °C 30.1 in /  1017.8 hPa SSE 3.5 mph /  5.6 km/h 3.5 mph /  5.6 km/h 43 % 0 in /  0.0 mm
18:16 63.5 °F /  17.5 °C 40.6 °F /  4.8 °C 30.1 in /  1017.8 hPa NW 4.6 mph /  7.4 km/h 4.6 mph /  7.4 km/h 43 % 0 in /  0.0 mm
18:21 63.3 °F /  17.4 °C 41 °F /  5.0 °C 30.1 in /  1017.8 hPa WSW 5.8 mph /  9.3 km/h 5.8 mph /  9.3 km/h 44 % 0 in /  0.0 mm
18:26 63.1 °F /  17.3 °C 40.3 °F /  4.6 °C 30.1 in /  1017.8 hPa West 5.8 mph /  9.3 km/h 5.8 mph /  9.3 km/h 43 % 0 in /  0.0 mm
18:31 63 °F /  17.2 °C 40.1 °F /  4.5 °C 30.1 in /  1017.8 hPa ENE 2.6 mph /  4.2 km/h   43 % 0 in /  0.0 mm
18:36 62.8 °F /  17.1 °C 40.5 °F /  4.7 °C 30.1 in /  1017.8 hPa NW 2.3 mph /  3.7 km/h 2.3 mph /  3.7 km/h 44 % 0 in /  0.0 mm
18:41 62.6 °F /  17.0 °C 40.5 °F /  4.7 °C 30 in /  1016.8 hPa WNW 4.6 mph /  7.4 km/h 4.6 mph /  7.4 km/h 44 % 0 in /  0.0 mm
18:46 62.4 °F /  16.9 °C 40.8 °F /  4.9 °C 30 in /  1016.8 hPa West 2.3 mph /  3.7 km/h 2.3 mph /  3.7 km/h 45 % 0 in /  0.0 mm
18:51 62.1 °F /  16.7 °C 40.5 °F /  4.7 °C 30 in /  1016.8 hPa West 2.3 mph /  3.7 km/h 2.3 mph /  3.7 km/h 45 % 0 in /  0.0 mm
18:56 61.9 °F /  16.6 °C 40.3 °F /  4.6 °C 30 in /  1016.8 hPa West 1.6 mph /  2.6 km/h 1.6 mph /  2.6 km/h 45 % 0 in /  0.0 mm
19:01 61.7 °F /  16.5 °C 40.1 °F /  4.5 °C 30 in /  1016.8 hPa Calm     45 % 0 in /  0.0 mm
19:06 61.3 °F /  16.3 °C 40.5 °F /  4.7 °C 30 in /  1016.8 hPa SW 2.3 mph /  3.7 km/h 2.3 mph /  3.7 km/h 46 % 0 in /  0.0 mm
19:11 61.3 °F /  16.3 °C 40.5 °F /  4.7 °C 30 in /  1016.8 hPa WNW 1.2 mph /  1.9 km/h 1.2 mph /  1.9 km/h 46 % 0 in /  0.0 mm
19:16 61.2 °F /  16.2 °C 40.3 °F /  4.6 °C 30 in /  1016.8 hPa NW 1.4 mph /  2.3 km/h 1.4 mph /  2.3 km/h 46 % 0 in /  0.0 mm
19:21 61.2 °F /  16.2 °C 40.3 °F /  4.6 °C 30 in /  1016.8 hPa West 2.3 mph /  3.7 km/h 2.3 mph /  3.7 km/h 46 % 0 in /  0.0 mm
19:26 61 °F /  16.1 °C 39.9 °F /  4.4 °C 30 in /  1016.8 hPa WSW 3.5 mph /  5.6 km/h 3.5 mph /  5.6 km/h 46 % 0 in /  0.0 mm
19:31 61 °F /  16.1 °C 40.6 °F /  4.8 °C 30 in /  1016.8 hPa NNW 2.3 mph /  3.7 km/h 2.3 mph /  3.7 km/h 47 % 0 in /  0.0 mm
19:36 60.8 °F /  16.0 °C 40.5 °F /  4.7 °C 30 in /  1016.8 hPa NW 4.6 mph /  7.4 km/h 4.6 mph /  7.4 km/h 47 % 0 in /  0.0 mm
19:41 60.8 °F /  16.0 °C 40.5 °F /  4.7 °C 30.1 in /  1017.8 hPa North 1.6 mph /  2.6 km/h 1.6 mph /  2.6 km/h 47 % 0 in /  0.0 mm
19:46 60.8 °F /  16.0 °C 40.5 °F /  4.7 °C 30.1 in /  1017.8 hPa North 2.3 mph /  3.7 km/h 2.3 mph /  3.7 km/h 47 % 0 in /  0.0 mm
19:51 60.8 °F /  16.0 °C 40.5 °F /  4.7 °C 30.1 in /  1017.8 hPa NE 3.6 mph /  5.8 km/h 3.6 mph /  5.8 km/h 47 % 0 in /  0.0 mm
19:56 61.2 °F /  16.2 °C 40.8 °F /  4.9 °C 30.1 in /  1017.8 hPa ENE 3.5 mph /  5.6 km/h 3.5 mph /  5.6 km/h 47 % 0 in /  0.0 mm
20:01 60.8 °F /  16.0 °C 41 °F /  5.0 °C 30.1 in /  1017.8 hPa NNE 4.6 mph /  7.4 km/h 4.6 mph /  7.4 km/h 48 % 0 in /  0.0 mm
20:06 60.6 °F /  15.9 °C 40.8 °F /  4.9 °C 30.1 in /  1017.8 hPa NE 5.8 mph /  9.3 km/h 5.8 mph /  9.3 km/h 48 % 0 in /  0.0 mm
20:11 60.3 °F /  15.7 °C 40.5 °F /  4.7 °C 30.1 in /  1017.8 hPa ENE 2.3 mph /  3.7 km/h 2.3 mph /  3.7 km/h 48 % 0 in /  0.0 mm
20:16 59.7 °F /  15.4 °C 40.5 °F /  4.7 °C 30.1 in /  1017.8 hPa NNE 2.6 mph /  4.2 km/h 2.6 mph /  4.2 km/h 49 % 0 in /  0.0 mm
20:21 59.7 °F /  15.4 °C 40.5 °F /  4.7 °C 30.1 in /  1017.8 hPa NNE 3.5 mph /  5.6 km/h 3.5 mph /  5.6 km/h 49 % 0 in /  0.0 mm
20:26 59.4 °F /  15.2 °C 40.3 °F /  4.6 °C 30.1 in /  1017.8 hPa NE 2.6 mph /  4.2 km/h 2.6 mph /  4.2 km/h 49 % 0 in /  0.0 mm
20:31 59.2 °F /  15.1 °C 40.5 °F /  4.7 °C 30.1 in /  1017.8 hPa WNW 1.4 mph /  2.3 km/h 1.4 mph /  2.3 km/h 50 % 0 in /  0.0 mm
20:36 59 °F /  15.0 °C 40.5 °F /  4.7 °C 30.1 in /  1017.8 hPa NNE 2.3 mph /  3.7 km/h 2.3 mph /  3.7 km/h 50 % 0 in /  0.0 mm
20:41 58.8 °F /  14.9 °C 40.3 °F /  4.6 °C 30.1 in /  1017.8 hPa Calm     50 % 0 in /  0.0 mm
20:46 58.6 °F /  14.8 °C 39.9 °F /  4.4 °C 30.1 in /  1017.8 hPa NNE 3.5 mph /  5.6 km/h 3.5 mph /  5.6 km/h 50 % 0 in /  0.0 mm
20:51 58.3 °F /  14.6 °C 40.3 °F /  4.6 °C 30.1 in /  1017.8 hPa Calm     51 % 0 in /  0.0 mm
20:56 58.3 °F /  14.6 °C 40.3 °F /  4.6 °C 30.1 in /  1017.8 hPa NNE 3.5 mph /  5.6 km/h 3.5 mph /  5.6 km/h 51 % 0 in /  0.0 mm
21:01 58.3 °F /  14.6 °C 40.3 °F /  4.6 °C 30.1 in /  1017.8 hPa WNW 2.3 mph /  3.7 km/h 2.3 mph /  3.7 km/h 51 % 0 in /  0.0 mm
21:06 58.1 °F /  14.5 °C 40.1 °F /  4.5 °C 30.1 in /  1017.8 hPa NNE 2.6 mph /  4.2 km/h 2.6 mph /  4.2 km/h 51 % 0 in /  0.0 mm
21:11 58.1 °F /  14.5 °C 40.1 °F /  4.5 °C 30.1 in /  1017.8 hPa NNE 2.3 mph /  3.7 km/h 2.3 mph /  3.7 km/h 51 % 0 in /  0.0 mm
21:16 57.9 °F /  14.4 °C 40.5 °F /  4.7 °C 30.1 in /  1017.8 hPa NNE 3.5 mph /  5.6 km/h 3.5 mph /  5.6 km/h 52 % 0 in /  0.0 mm
21:21 57.9 °F /  14.4 °C 40.5 °F /  4.7 °C 30.1 in /  1017.8 hPa NNE 2.9 mph /  4.7 km/h 2.9 mph /  4.7 km/h 52 % 0 in /  0.0 mm
21:26 58.1 °F /  14.5 °C 40.6 °F /  4.8 °C 30.1 in /  1017.8 hPa NNE 4.6 mph /  7.4 km/h 4.6 mph /  7.4 km/h 52 % 0 in /  0.0 mm
21:31 57.9 °F /  14.4 °C 40.5 °F /  4.7 °C 30.1 in /  1017.8 hPa NNE 2 mph /  3.2 km/h 2 mph /  3.2 km/h 52 % 0 in /  0.0 mm
21:36 57.7 °F /  14.3 °C 40.3 °F /  4.6 °C 30.1 in /  1017.8 hPa NNE 3.5 mph /  5.6 km/h 3.5 mph /  5.6 km/h 52 % 0 in /  0.0 mm
21:41 57.7 °F /  14.3 °C 40.3 °F /  4.6 °C 30.1 in /  1017.8 hPa NNE 2.3 mph /  3.7 km/h 2.3 mph /  3.7 km/h 52 % 0 in /  0.0 mm
21:46 57.6 °F /  14.2 °C 40.5 °F /  4.7 °C 30.1 in /  1017.8 hPa NNE 1.4 mph /  2.3 km/h 1.4 mph /  2.3 km/h 53 % 0 in /  0.0 mm
21:51 57.4 °F /  14.1 °C 40.5 °F /  4.7 °C 30.1 in /  1017.8 hPa Calm     53 % 0 in /  0.0 mm
21:56 57.2 °F /  14.0 °C 40.3 °F /  4.6 °C 30.1 in /  1017.8 hPa Calm     53 % 0 in /  0.0 mm
22:01 57 °F /  13.9 °C 39.9 °F /  4.4 °C 30.1 in /  1017.8 hPa NW 1.2 mph /  1.9 km/h 1.2 mph /  1.9 km/h 53 % 0 in /  0.0 mm
22:06 57 °F /  13.9 °C 39.9 °F /  4.4 °C 30.1 in /  1017.8 hPa NE 2.3 mph /  3.7 km/h 2.3 mph /  3.7 km/h 53 % 0 in /  0.0 mm
22:11 56.8 °F /  13.8 °C 39.9 °F /  4.4 °C 30.1 in /  1017.8 hPa North 2 mph /  3.2 km/h 2 mph /  3.2 km/h 53 % 0 in /  0.0 mm
22:16 56.7 °F /  13.7 °C 40.3 °F /  4.6 °C 30.1 in /  1017.8 hPa NNE 1.2 mph /  1.9 km/h   54 % 0 in /  0.0 mm
22:21 56.5 °F /  13.6 °C 39.9 °F /  4.4 °C 30.1 in /  1017.8 hPa Calm     54 % 0 in /  0.0 mm
22:26 56.3 °F /  13.5 °C 39.9 °F /  4.4 °C 30.1 in /  1017.8 hPa North 1.2 mph /  1.9 km/h   54 % 0 in /  0.0 mm
22:31 56.1 °F /  13.4 °C 39.7 °F /  4.3 °C 30.1 in /  1017.8 hPa WNW 1.2 mph /  1.9 km/h   54 % 0 in /  0.0 mm
22:36 55.9 °F /  13.3 °C 39.6 °F /  4.2 °C 30.1 in /  1017.8 hPa WNW 1.2 mph /  1.9 km/h   54 % 0 in /  0.0 mm
22:41 55.9 °F /  13.3 °C 39.9 °F /  4.4 °C 30.1 in /  1017.8 hPa NNE 2.2 mph /  3.5 km/h   55 % 0 in /  0.0 mm
22:46 55.8 °F /  13.2 °C 39.7 °F /  4.3 °C 30.1 in /  1017.8 hPa NNW 1.2 mph /  1.9 km/h 1.2 mph /  1.9 km/h 55 % 0 in /  0.0 mm
22:51 55.9 °F /  13.3 °C 39.9 °F /  4.4 °C 30.1 in /  1017.8 hPa East 2.4 mph /  3.9 km/h 2.4 mph /  3.9 km/h 55 % 0 in /  0.0 mm
22:56 55.9 °F /  13.3 °C 39.9 °F /  4.4 °C 30.1 in /  1017.8 hPa WSW 3.5 mph /  5.6 km/h 3.5 mph /  5.6 km/h 55 % 0 in /  0.0 mm
23:01 56.1 °F /  13.4 °C 40.3 °F /  4.6 °C 30.1 in /  1017.8 hPa NNW 2.4 mph /  3.9 km/h 2.4 mph /  3.9 km/h 55 % 0 in /  0.0 mm
23:06 56.5 °F /  13.6 °C 40.5 °F /  4.7 °C 30.1 in /  1017.8 hPa West 1.2 mph /  1.9 km/h 1.2 mph /  1.9 km/h 55 % 0 in /  0.0 mm
23:11 56.5 °F /  13.6 °C 40.5 °F /  4.7 °C 30.1 in /  1017.8 hPa Calm     55 % 0 in /  0.0 mm
23:16 56.5 °F /  13.6 °C 40.5 °F /  4.7 °C 30.1 in /  1017.8 hPa Calm     55 % 0 in /  0.0 mm
23:21 56.5 °F /  13.6 °C 40.5 °F /  4.7 °C 30.1 in /  1017.8 hPa WSW 1.2 mph /  1.9 km/h   55 % 0 in /  0.0 mm
23:26 56.5 °F /  13.6 °C 40.5 °F /  4.7 °C 30 in /  1016.8 hPa Calm     55 % 0 in /  0.0 mm
23:31 56.5 °F /  13.6 °C 40.5 °F /  4.7 °C 30 in /  1016.8 hPa Calm     55 % 0 in /  0.0 mm
23:36 56.3 °F /  13.5 °C 40.3 °F /  4.6 °C 30 in /  1016.8 hPa North 1.4 mph /  2.3 km/h 1.4 mph /  2.3 km/h 55 % 0 in /  0.0 mm
23:41 56.3 °F /  13.5 °C 40.3 °F /  4.6 °C 30 in /  1016.8 hPa Calm     55 % 0 in /  0.0 mm
23:46 56.3 °F /  13.5 °C 40.3 °F /  4.6 °C 30 in /  1016.8 hPa NNE 2.3 mph /  3.7 km/h 2.3 mph /  3.7 km/h 55 % 0 in /  0.0 mm
23:51 56.1 °F /  13.4 °C 40.3 °F /  4.6 °C 30 in /  1016.8 hPa NNE 1.2 mph /  1.9 km/h   55 % 0 in /  0.0 mm
23:56 55.8 °F /  13.2 °C 40.3 °F /  4.6 °C 30 in /  1016.8 hPa North 2.3 mph /  3.7 km/h 2.3 mph /  3.7 km/h 56 % 0 in /  0.0 mm
Meteo Sesrovires
Elogis d' Weather Underground - 3.5 mb

Guio original per  Jim McMurry - jmcmurry@mwt.net Adaptat per a la plantilla per  Wim van der Kuil - Leuven-Template.eu

Trobareu la nostra informacio del temps tambe a:

Weather Underground

AWEKAS